Time;durP1;ratioP1;P1;durP2;ratioP2;P2;SDS_P1;SDS_P2;PMS_P1;PMS_P2;Temp;Humidity;BMP_temperature;BMP_pressure;BME280_temperature;BME280_humidity;BME280_pressure;Samples;Min_cycle;Max_cycle;Signal;HPM_P1;HPM_P2
2022/09/07 00:02:25;;;;;;;30.80;23.30;;;14.70;99.90;;;;;;20759768;28;20249;-58
2022/09/07 00:12:27;;;;;;;27.77;21.98;;;14.70;99.90;;;;;;20762581;28;20483;-48
2022/09/07 00:22:30;;;;;;;26.70;21.02;;;14.70;99.90;;;;;;20749720;28;20104;-59
2022/09/07 00:32:33;;;;;;;31.35;21.08;;;14.80;99.90;;;;;;20731267;28;20065;-47
2022/09/07 00:42:36;;;;;;;22.63;17.08;;;14.90;99.90;;;;;;20739463;28;20037;-48
2022/09/07 00:52:41;;;;;;;35.00;17.77;;;15.00;99.90;;;;;;20750599;28;20046;-59
2022/09/07 01:02:45;;;;;;;21.40;17.25;;;15.30;99.90;;;;;;20724489;28;20579;-48
2022/09/07 01:12:48;;;;;;;31.25;19.63;;;15.40;99.90;;;;;;20741210;28;20033;-48
2022/09/07 01:23:11;;;;;;;51.30;25.40;;;15.40;99.90;;;;;;20736599;28;20478;-62
2022/09/07 01:33:30;;;;;;;18.20;12.13;;;15.10;99.90;;;;;;20741756;28;20065;-46
2022/09/07 01:43:41;;;;;;;16.77;9.87;;;14.60;99.90;;;;;;20738570;28;20426;-48
2022/09/07 01:53:51;;;;;;;17.27;10.57;;;14.10;99.90;;;;;;20720964;28;20045;-51
2022/09/07 02:03:58;;;;;;;18.98;12.68;;;13.80;99.90;;;;;;20738549;28;20672;-47
2022/09/07 02:14:17;;;;;;;;;;;13.80;99.90;;;;;;20741965;28;20072;-48
2022/09/07 02:24:28;;;;;;;21.00;14.18;;;13.80;99.90;;;;;;20720355;28;19913;-50
2022/09/07 02:34:31;;;;;;;28.10;15.13;;;13.90;99.90;;;;;;20739178;28;20057;-60
2022/09/07 02:44:36;;;;;;;33.10;19.65;;;13.90;99.90;;;;;;20735000;28;20347;-60
2022/09/07 02:54:55;;;;;;;40.28;25.10;;;14.00;99.90;;;;;;20748770;28;20544;-60
2022/09/07 03:05:20;;;;;;;41.97;25.42;;;14.10;99.90;;;;;;20752565;28;20033;-51
2022/09/07 03:15:25;;;;;;;55.35;32.35;;;14.20;99.90;;;;;;20752084;28;20033;-52
2022/09/07 03:25:28;;;;;;;72.07;37.15;;;14.20;99.90;;;;;;20746559;28;20084;-61
2022/09/07 03:35:31;;;;;;;61.10;25.58;;;14.20;99.90;;;;;;20736245;28;20030;-60
2022/09/07 03:45:33;;;;;;;33.05;21.13;;;14.10;99.90;;;;;;20733496;28;20050;-61
2022/09/07 03:55:36;;;;;;;38.65;23.25;;;13.90;99.90;;;;;;20747807;28;20329;-50
2022/09/07 04:05:39;;;;;;;63.40;34.92;;;13.90;99.90;;;;;;20761768;28;20038;-48
2022/09/07 04:15:41;;;;;;;67.88;36.55;;;14.10;99.90;;;;;;20732931;28;20034;-48
2022/09/07 04:25:51;;;;;;;77.10;36.97;;;14.20;99.90;;;;;;20729064;28;20026;-48
2022/09/07 04:35:54;;;;;;;51.95;30.23;;;14.20;99.90;;;;;;20731856;28;20030;-50
2022/09/07 04:46:00;;;;;;;77.38;39.42;;;14.30;99.90;;;;;;20763076;28;20494;-52
2022/09/07 04:56:04;;;;;;;50.28;30.85;;;14.40;99.90;;;;;;20732766;28;20092;-60
2022/09/07 05:06:07;;;;;;;52.53;30.13;;;14.40;99.90;;;;;;20733020;28;20034;-60
2022/09/07 05:16:17;;;;;;;69.97;38.70;;;14.60;99.90;;;;;;20727390;28;20037;-46
2022/09/07 05:26:21;;;;;;;78.20;38.50;;;14.70;99.90;;;;;;20743105;28;20046;-60
2022/09/07 05:36:26;;;;;;;51.55;33.35;;;14.80;99.90;;;;;;20720083;28;20029;-61
2022/09/07 05:46:29;;;;;;;51.40;32.60;;;15.00;99.90;;;;;;20711486;28;20503;-47
2022/09/07 05:56:35;;;;;;;43.25;30.67;;;15.20;99.90;;;;;;20751159;28;20065;-61
2022/09/07 06:06:41;;;;;;;40.90;28.60;;;15.40;99.90;;;;;;20749803;28;20042;-50
2022/09/07 06:16:43;;;;;;;52.03;33.28;;;15.60;99.90;;;;;;20720543;28;20100;-61
2022/09/07 06:26:46;;;;;;;43.60;28.88;;;15.60;99.90;;;;;;20723145;28;20034;-47
2022/09/07 06:36:49;;;;;;;32.17;23.88;;;15.90;99.90;;;;;;20736675;28;20092;-61
2022/09/07 06:46:51;;;;;;;34.60;25.08;;;16.30;99.90;;;;;;20719324;28;20108;-61
2022/09/07 06:56:54;;;;;;;20.42;17.85;;;16.50;99.90;;;;;;20707176;28;20042;-61
2022/09/07 07:06:56;;;;;;;14.52;11.55;;;17.00;99.90;;;;;;20742648;28;20025;-61
2022/09/07 07:16:59;;;;;;;10.02;8.95;;;18.60;99.90;;;;;;20720408;28;20367;-49
2022/09/07 07:27:01;;;;;;;11.93;8.48;;;19.30;99.90;;;;;;20736648;28;20041;-60
2022/09/07 07:37:05;;;;;;;10.23;9.10;;;18.80;99.90;;;;;;20730060;28;20619;-49
2022/09/07 07:47:07;;;;;;;11.27;9.40;;;18.50;99.90;;;;;;20747805;28;20051;-60
2022/09/07 07:57:10;;;;;;;11.82;9.85;;;18.10;99.90;;;;;;20748387;28;20038;-60
2022/09/07 08:07:14;;;;;;;13.27;11.88;;;17.80;99.90;;;;;;20715095;28;20437;-48
2022/09/07 08:17:17;;;;;;;11.32;10.20;;;18.00;99.90;;;;;;20747426;28;20030;-59
2022/09/07 08:27:19;;;;;;;11.55;10.35;;;18.30;99.90;;;;;;20734873;28;20084;-59
2022/09/07 08:37:23;;;;;;;12.30;10.75;;;18.50;99.90;;;;;;20746900;28;20042;-59
2022/09/07 08:47:40;;;;;;;13.70;11.82;;;18.70;99.90;;;;;;20734649;28;20058;-59
2022/09/07 08:58:12;;;;;;;12.65;10.88;;;18.60;99.90;;;;;;20726677;28;20042;-59
2022/09/07 09:08:23;;;;;;;13.68;12.25;;;18.30;99.90;;;;;;20443174;28;20476;-47
2022/09/07 09:18:25;;;;;;;10.57;9.55;;;18.90;99.90;;;;;;20465051;28;20084;-49
2022/09/07 09:28:28;;;;;;;10.88;9.57;;;21.30;99.90;;;;;;20469845;28;20043;-59
2022/09/07 09:38:35;;;;;;;9.35;8.45;;;21.40;99.90;;;;;;20517041;28;20042;-59
2022/09/07 09:48:40;;;;;;;10.55;7.72;;;22.00;99.90;;;;;;20723973;28;20406;-47
2022/09/07 09:58:46;;;;;;;10.32;8.93;;;22.10;99.90;;;;;;20743106;28;20065;-50
2022/09/07 10:09:00;;;;;;;11.32;7.63;;;22.10;99.90;;;;;;20755500;28;20419;-51
2022/09/07 10:19:03;;;;;;;7.85;6.80;;;22.90;99.90;;;;;;20721671;28;20038;-51
2022/09/07 10:29:30;;;;;;;9.82;7.35;;;22.90;99.90;;;;;;20721987;28;20092;-50
2022/09/07 10:39:40;;;;;;;;;;;22.60;99.90;;;;;;20720649;28;20046;-59
2022/09/07 10:49:55;;;;;;;11.77;7.80;;;22.60;99.90;;;;;;20731022;28;19925;-60
2022/09/07 11:00:11;;;;;;;10.25;8.20;;;22.80;99.90;;;;;;20735591;28;20038;-51
2022/09/07 11:10:55;;;;;;;6.70;6.00;;;22.90;99.90;;;;;;20722609;28;20046;-60
2022/09/07 11:21:02;;;;;;;8.18;7.25;;;23.20;99.90;;;;;;20747317;28;20037;-51
2022/09/07 11:31:22;;;;;;;9.15;6.90;;;23.40;99.90;;;;;;20753808;28;20041;-60
2022/09/07 11:41:41;;;;;;;8.50;7.25;;;23.50;99.90;;;;;;20744207;28;20038;-54
2022/09/07 11:52:03;;;;;;;;;;;23.60;99.90;;;;;;20758441;28;20131;-60
2022/09/07 12:02:30;;;;;;;8.35;7.50;;;23.50;99.90;;;;;;20796813;28;19971;-49
2022/09/07 12:13:06;;;;;;;11.35;10.25;;;23.20;99.90;;;;;;20759864;28;20037;-59
2022/09/07 12:23:14;;;;;;;10.70;9.65;;;22.70;99.90;;;;;;20732586;28;20038;-60
2022/09/07 12:33:27;;;;;;;;;;;22.20;99.90;;;;;;20735102;28;20030;-52
2022/09/07 12:43:33;;;;;;;13.82;12.50;;;21.80;99.90;;;;;;20728945;28;20424;-47
2022/09/07 12:54:06;;;;;;;20.92;18.25;;;21.40;99.90;;;;;;20735803;28;20080;-59
2022/09/07 13:04:09;;;;;;;21.75;19.15;;;20.50;99.90;;;;;;20742444;28;20092;-59
2022/09/07 13:14:14;;;;;;;21.58;18.52;;;19.90;99.90;;;;;;20744690;28;20034;-51
2022/09/07 13:24:18;;;;;;;21.58;18.75;;;20.20;99.90;;;;;;20741934;28;20034;-51
2022/09/07 13:34:32;;;;;;;15.32;13.73;;;20.50;99.90;;;;;;20722971;28;20030;-50
2022/09/07 13:44:35;;;;;;;19.48;16.55;;;20.80;99.90;;;;;;20723547;28;20033;-53
2022/09/07 13:54:59;;;;;;;16.17;13.68;;;21.10;99.90;;;;;;20758068;28;20139;-59
2022/09/07 14:05:04;;;;;;;17.75;13.55;;;21.50;99.90;;;;;;20738912;28;20161;-47
2022/09/07 14:15:37;;;;;;;18.55;14.73;;;21.50;99.90;;;;;;20754461;28;20057;-60
2022/09/07 14:25:41;;;;;;;13.60;12.20;;;21.90;99.90;;;;;;20716180;28;20053;-52
2022/09/07 14:35:43;;;;;;;13.60;11.48;;;22.20;99.90;;;;;;20743776;28;20107;-51
2022/09/07 14:45:46;;;;;;;10.88;9.35;;;22.40;99.90;;;;;;20721446;28;20108;-51
2022/09/07 14:56:01;;;;;;;10.38;9.00;;;22.80;99.90;;;;;;20755654;28;20038;-60
2022/09/07 15:06:03;;;;;;;7.45;6.70;;;23.60;99.90;;;;;;20736748;28;20561;-60
2022/09/07 15:16:19;;;;;;;7.68;5.47;;;23.40;99.90;;;;;;20718155;28;20046;-60
2022/09/07 15:26:25;;;;;;;7.72;6.85;;;22.30;99.90;;;;;;20725918;28;20200;-60
2022/09/07 15:36:28;;;;;;;11.70;7.53;;;21.20;99.90;;;;;;20724815;28;20438;-60
2022/09/07 15:46:30;;;;;;;10.65;7.20;;;20.40;99.90;;;;;;20753644;28;20046;-59
2022/09/07 15:56:33;;;;;;;14.35;10.80;;;19.70;99.90;;;;;;20725127;28;20364;-58
2022/09/07 16:06:36;;;;;;;11.23;10.18;;;19.90;99.90;;;;;;20730628;28;20401;-60
2022/09/07 16:16:39;;;;;;;9.73;8.68;;;20.30;99.90;;;;;;20729603;28;20084;-46
2022/09/07 16:26:41;;;;;;;16.40;11.88;;;19.90;99.90;;;;;;20737301;28;20077;-59
2022/09/07 16:36:44;;;;;;;20.40;15.23;;;19.00;99.90;;;;;;20749814;28;20026;-59
2022/09/07 16:46:46;;;;;;;14.70;12.88;;;18.30;99.90;;;;;;20751428;28;20124;-49
2022/09/07 16:56:51;;;;;;;14.70;11.82;;;17.80;99.90;;;;;;20730573;28;20058;-49
2022/09/07 17:06:54;;;;;;;13.98;9.82;;;17.70;99.90;;;;;;20742338;28;20424;-57
2022/09/07 17:16:57;;;;;;;15.88;10.15;;;17.50;99.90;;;;;;20727380;28;20029;-49
2022/09/07 17:27:00;;;;;;;13.75;10.82;;;17.10;99.90;;;;;;20741509;28;20037;-48
2022/09/07 17:37:03;;;;;;;15.20;11.38;;;16.70;99.90;;;;;;20737663;28;20434;-49
2022/09/07 17:47:05;;;;;;;16.80;11.02;;;16.40;99.90;;;;;;20724278;28;20457;-52
2022/09/07 17:57:08;;;;;;;23.52;13.88;;;15.90;99.90;;;;;;20739650;28;20470;-51
2022/09/07 18:07:11;;;;;;;21.33;15.45;;;15.50;99.90;;;;;;20726610;28;20037;-57
2022/09/07 18:17:13;;;;;;;23.58;17.60;;;15.40;99.90;;;;;;20746124;28;20101;-51
2022/09/07 18:27:20;;;;;;;21.92;16.15;;;15.30;99.90;;;;;;20740161;28;20038;-50
2022/09/07 18:37:23;;;;;;;34.17;21.65;;;15.10;99.90;;;;;;20720220;28;20080;-48
2022/09/07 18:47:25;;;;;;;29.13;20.75;;;15.00;99.90;;;;;;20734038;28;20103;-58
2022/09/07 18:57:28;;;;;;;32.40;23.67;;;15.00;99.90;;;;;;20778924;28;20555;-58
2022/09/07 19:07:31;;;;;;;31.17;22.02;;;15.20;99.90;;;;;;20733863;28;20069;-57
2022/09/07 19:17:34;;;;;;;33.55;25.27;;;15.30;99.90;;;;;;20742823;28;20041;-58
2022/09/07 19:27:36;;;;;;;33.88;23.45;;;15.60;99.90;;;;;;20757612;28;20108;-49
2022/09/07 19:37:39;;;;;;;30.23;25.42;;;15.70;99.90;;;;;;20747192;28;20553;-58
2022/09/07 19:47:41;;;;;;;42.42;31.25;;;16.00;99.90;;;;;;20768285;28;20050;-51
2022/09/07 19:57:49;;;;;;;36.30;30.17;;;16.20;99.90;;;;;;20732879;28;20041;-48
2022/09/07 20:07:52;;;;;;;39.53;32.30;;;16.30;99.90;;;;;;20756262;28;20158;-58
2022/09/07 20:17:55;;;;;;;51.75;38.15;;;16.50;99.90;;;;;;20782943;28;20359;-59
2022/09/07 20:27:57;;;;;;;31.38;26.48;;;16.50;99.90;;;;;;20750241;28;20041;-47
2022/09/07 20:38:01;;;;;;;40.45;32.13;;;16.50;99.90;;;;;;20771299;28;20033;-51
2022/09/07 20:48:03;;;;;;;43.70;34.20;;;16.40;99.90;;;;;;20737378;28;20054;-47
2022/09/07 20:58:05;;;;;;;49.88;37.15;;;16.20;99.90;;;;;;20771499;28;20096;-48
2022/09/07 21:08:09;;;;;;;46.00;33.80;;;16.10;99.90;;;;;;20727118;28;20475;-51
2022/09/07 21:18:14;;;;;;;36.70;29.23;;;16.10;99.90;;;;;;20742609;28;20117;-46
2022/09/07 21:28:17;;;;;;;36.20;30.13;;;16.20;99.90;;;;;;20725424;28;20042;-59
2022/09/07 21:38:21;;;;;;;39.63;30.23;;;16.20;99.90;;;;;;20740938;28;20038;-49
2022/09/07 21:48:23;;;;;;;34.85;26.50;;;16.30;99.90;;;;;;20723267;28;20107;-59
2022/09/07 21:58:28;;;;;;;28.83;23.73;;;16.40;99.90;;;;;;20733273;28;20037;-52
2022/09/07 22:08:33;;;;;;;23.70;19.25;;;16.50;99.90;;;;;;20757779;28;20107;-48
2022/09/07 22:18:36;;;;;;;19.30;16.17;;;16.50;99.90;;;;;;20731171;28;20088;-51
2022/09/07 22:28:40;;;;;;;29.65;20.80;;;16.50;99.90;;;;;;20706598;28;20029;-50
2022/09/07 22:38:44;;;;;;;24.88;20.27;;;16.40;99.90;;;;;;20744996;28;20046;-51
2022/09/07 22:48:47;;;;;;;21.90;17.83;;;16.30;99.90;;;;;;20757191;28;20431;-58
2022/09/07 22:58:53;;;;;;;19.25;15.75;;;16.40;99.90;;;;;;20749419;28;20084;-59
2022/09/07 23:08:58;;;;;;;24.67;16.95;;;16.40;99.90;;;;;;20756207;28;20548;-52
2022/09/07 23:19:01;;;;;;;18.83;13.40;;;16.40;99.90;;;;;;20786356;28;20038;-52
2022/09/07 23:29:04;;;;;;;22.58;15.90;;;16.40;99.90;;;;;;20736062;28;20038;-50
2022/09/07 23:39:08;;;;;;;21.25;15.23;;;16.50;99.90;;;;;;20750887;28;20092;-49
2022/09/07 23:49:11;;;;;;;19.80;15.80;;;16.40;99.90;;;;;;20747265;28;20498;-59
2022/09/07 23:59:16;;;;;;;17.30;15.45;;;16.40;99.90;;;;;;20700184;28;20631;-57
